sensor_id;sensor_type;location;lat;lon;timestamp;P1;durP1;ratioP1;P2;durP2;ratioP2
49217;SDS011;35045;51.194;7.268;2023-12-20T00:00:02;6.45;;;3.10;;
49217;SDS011;35045;51.194;7.268;2023-12-20T00:02:28;5.72;;;2.75;;
49217;SDS011;35045;51.194;7.268;2023-12-20T00:04:55;5.63;;;2.70;;
49217;SDS011;35045;51.194;7.268;2023-12-20T00:07:21;4.72;;;2.30;;
49217;SDS011;35045;51.194;7.268;2023-12-20T00:09:47;4.07;;;1.65;;
49217;SDS011;35045;51.194;7.268;2023-12-20T00:12:14;5.00;;;1.80;;
49217;SDS011;35045;51.194;7.268;2023-12-20T00:14:40;4.47;;;2.08;;
49217;SDS011;35045;51.194;7.268;2023-12-20T00:17:06;3.63;;;1.63;;
49217;SDS011;35045;51.194;7.268;2023-12-20T00:19:33;4.53;;;1.50;;
49217;SDS011;35045;51.194;7.268;2023-12-20T00:21:59;3.97;;;1.52;;
49217;SDS011;35045;51.194;7.268;2023-12-20T00:24:25;5.53;;;1.50;;
49217;SDS011;35045;51.194;7.268;2023-12-20T00:26:53;4.00;;;1.33;;
49217;SDS011;35045;51.194;7.268;2023-12-20T00:29:19;5.60;;;1.83;;
49217;SDS011;35045;51.194;7.268;2023-12-20T00:31:45;4.93;;;1.95;;
49217;SDS011;35045;51.194;7.268;2023-12-20T00:34:11;5.28;;;2.10;;
49217;SDS011;35045;51.194;7.268;2023-12-20T00:36:38;5.75;;;2.65;;
49217;SDS011;35045;51.194;7.268;2023-12-20T00:39:04;6.65;;;2.22;;
49217;SDS011;35045;51.194;7.268;2023-12-20T00:41:30;5.57;;;2.30;;
49217;SDS011;35045;51.194;7.268;2023-12-20T00:43:56;7.68;;;2.80;;
49217;SDS011;35045;51.194;7.268;2023-12-20T00:46:23;6.28;;;2.67;;
49217;SDS011;35045;51.194;7.268;2023-12-20T00:48:49;9.32;;;3.13;;
49217;SDS011;35045;51.194;7.268;2023-12-20T00:51:15;7.57;;;3.20;;
49217;SDS011;35045;51.194;7.268;2023-12-20T00:53:42;8.95;;;4.15;;
49217;SDS011;35045;51.194;7.268;2023-12-20T00:56:09;9.65;;;4.38;;
49217;SDS011;35045;51.194;7.268;2023-12-20T00:58:35;8.63;;;4.00;;
49217;SDS011;35045;51.194;7.268;2023-12-20T01:01:01;9.70;;;5.43;;
49217;SDS011;35045;51.194;7.268;2023-12-20T01:03:27;9.95;;;5.80;;
49217;SDS011;35045;51.194;7.268;2023-12-20T01:05:54;13.18;;;6.43;;
49217;SDS011;35045;51.194;7.268;2023-12-20T01:08:20;14.02;;;7.53;;
49217;SDS011;35045;51.194;7.268;2023-12-20T01:10:46;14.77;;;8.45;;
49217;SDS011;35045;51.194;7.268;2023-12-20T01:13:12;15.88;;;7.40;;
49217;SDS011;35045;51.194;7.268;2023-12-20T01:15:38;13.93;;;7.63;;
49217;SDS011;35045;51.194;7.268;2023-12-20T01:18:05;12.93;;;6.80;;
49217;SDS011;35045;51.194;7.268;2023-12-20T01:20:31;17.73;;;7.82;;
49217;SDS011;35045;51.194;7.268;2023-12-20T01:22:57;16.55;;;7.25;;
49217;SDS011;35045;51.194;7.268;2023-12-20T01:25:23;14.27;;;6.72;;
49217;SDS011;35045;51.194;7.268;2023-12-20T01:27:50;15.75;;;6.90;;
49217;SDS011;35045;51.194;7.268;2023-12-20T01:30:16;14.32;;;7.28;;
49217;SDS011;35045;51.194;7.268;2023-12-20T01:32:42;11.65;;;6.85;;
49217;SDS011;35045;51.194;7.268;2023-12-20T01:35:08;14.93;;;7.68;;
49217;SDS011;35045;51.194;7.268;2023-12-20T01:37:35;11.80;;;7.40;;
49217;SDS011;35045;51.194;7.268;2023-12-20T01:40:01;13.30;;;7.50;;
49217;SDS011;35045;51.194;7.268;2023-12-20T01:42:28;14.07;;;8.18;;
49217;SDS011;35045;51.194;7.268;2023-12-20T01:44:55;15.40;;;8.95;;
49217;SDS011;35045;51.194;7.268;2023-12-20T01:47:21;17.33;;;8.60;;
49217;SDS011;35045;51.194;7.268;2023-12-20T01:49:48;13.52;;;8.18;;
49217;SDS011;35045;51.194;7.268;2023-12-20T01:52:15;14.05;;;7.75;;
49217;SDS011;35045;51.194;7.268;2023-12-20T01:54:42;17.20;;;7.63;;
49217;SDS011;35045;51.194;7.268;2023-12-20T01:57:09;18.05;;;7.30;;
49217;SDS011;35045;51.194;7.268;2023-12-20T01:59:36;12.38;;;7.68;;
49217;SDS011;35045;51.194;7.268;2023-12-20T02:02:05;14.52;;;7.80;;
49217;SDS011;35045;51.194;7.268;2023-12-20T02:04:31;15.25;;;7.78;;
49217;SDS011;35045;51.194;7.268;2023-12-20T02:06:57;14.43;;;7.97;;
49217;SDS011;35045;51.194;7.268;2023-12-20T02:09:25;13.00;;;7.68;;
49217;SDS011;35045;51.194;7.268;2023-12-20T02:11:52;13.73;;;9.15;;
49217;SDS011;35045;51.194;7.268;2023-12-20T02:14:18;16.88;;;8.88;;
49217;SDS011;35045;51.194;7.268;2023-12-20T02:16:44;14.35;;;8.30;;
49217;SDS011;35045;51.194;7.268;2023-12-20T02:19:13;15.98;;;9.23;;
49217;SDS011;35045;51.194;7.268;2023-12-20T02:21:40;16.35;;;9.52;;
49217;SDS011;35045;51.194;7.268;2023-12-20T02:24:07;16.17;;;9.60;;
49217;SDS011;35045;51.194;7.268;2023-12-20T02:26:33;14.43;;;9.40;;
49217;SDS011;35045;51.194;7.268;2023-12-20T02:29:00;18.40;;;9.82;;
49217;SDS011;35045;51.194;7.268;2023-12-20T02:31:27;14.30;;;9.30;;
49217;SDS011;35045;51.194;7.268;2023-12-20T02:33:53;13.75;;;9.15;;
49217;SDS011;35045;51.194;7.268;2023-12-20T02:36:19;15.57;;;8.50;;
49217;SDS011;35045;51.194;7.268;2023-12-20T02:38:45;16.08;;;8.13;;
49217;SDS011;35045;51.194;7.268;2023-12-20T02:41:12;15.13;;;7.60;;
49217;SDS011;35045;51.194;7.268;2023-12-20T02:43:39;16.48;;;8.57;;
49217;SDS011;35045;51.194;7.268;2023-12-20T02:46:05;14.57;;;7.55;;
49217;SDS011;35045;51.194;7.268;2023-12-20T02:48:31;14.60;;;7.82;;
49217;SDS011;35045;51.194;7.268;2023-12-20T02:50:57;16.90;;;7.95;;
49217;SDS011;35045;51.194;7.268;2023-12-20T02:53:24;15.25;;;7.13;;
49217;SDS011;35045;51.194;7.268;2023-12-20T02:55:50;16.23;;;6.90;;
49217;SDS011;35045;51.194;7.268;2023-12-20T02:58:17;16.85;;;7.80;;
49217;SDS011;35045;51.194;7.268;2023-12-20T03:00:43;19.35;;;7.00;;
49217;SDS011;35045;51.194;7.268;2023-12-20T03:03:09;12.95;;;5.90;;
49217;SDS011;35045;51.194;7.268;2023-12-20T03:05:36;14.85;;;6.22;;
49217;SDS011;35045;51.194;7.268;2023-12-20T03:08:02;15.40;;;6.75;;
49217;SDS011;35045;51.194;7.268;2023-12-20T03:10:28;16.42;;;7.57;;
49217;SDS011;35045;51.194;7.268;2023-12-20T03:12:54;16.00;;;7.35;;
49217;SDS011;35045;51.194;7.268;2023-12-20T03:15:21;14.82;;;6.85;;
49217;SDS011;35045;51.194;7.268;2023-12-20T03:17:47;17.27;;;7.57;;
49217;SDS011;35045;51.194;7.268;2023-12-20T03:20:13;17.17;;;7.38;;
49217;SDS011;35045;51.194;7.268;2023-12-20T03:22:39;17.25;;;8.05;;
49217;SDS011;35045;51.194;7.268;2023-12-20T03:25:06;15.30;;;7.82;;
49217;SDS011;35045;51.194;7.268;2023-12-20T03:27:32;17.80;;;7.05;;
49217;SDS011;35045;51.194;7.268;2023-12-20T03:29:58;20.80;;;8.23;;
49217;SDS011;35045;51.194;7.268;2023-12-20T03:32:24;20.48;;;9.05;;
49217;SDS011;35045;51.194;7.268;2023-12-20T03:34:51;16.90;;;8.07;;
49217;SDS011;35045;51.194;7.268;2023-12-20T03:37:17;15.52;;;8.90;;
49217;SDS011;35045;51.194;7.268;2023-12-20T03:39:43;16.70;;;8.88;;
49217;SDS011;35045;51.194;7.268;2023-12-20T03:42:09;18.80;;;8.20;;
49217;SDS011;35045;51.194;7.268;2023-12-20T03:44:38;19.27;;;8.27;;
49217;SDS011;35045;51.194;7.268;2023-12-20T03:47:05;17.52;;;8.13;;
49217;SDS011;35045;51.194;7.268;2023-12-20T03:49:31;17.65;;;7.30;;
49217;SDS011;35045;51.194;7.268;2023-12-20T03:51:57;13.18;;;6.63;;
49217;SDS011;35045;51.194;7.268;2023-12-20T03:54:23;20.75;;;7.90;;
49217;SDS011;35045;51.194;7.268;2023-12-20T03:56:50;16.10;;;7.57;;
49217;SDS011;35045;51.194;7.268;2023-12-20T03:59:17;13.85;;;6.53;;
49217;SDS011;35045;51.194;7.268;2023-12-20T04:01:43;19.27;;;7.25;;
49217;SDS011;35045;51.194;7.268;2023-12-20T04:04:13;17.40;;;8.07;;
49217;SDS011;35045;51.194;7.268;2023-12-20T04:06:39;13.85;;;7.45;;
49217;SDS011;35045;51.194;7.268;2023-12-20T04:09:06;16.35;;;6.75;;
49217;SDS011;35045;51.194;7.268;2023-12-20T04:11:34;17.58;;;7.38;;
49217;SDS011;35045;51.194;7.268;2023-12-20T04:14:01;15.48;;;6.78;;
49217;SDS011;35045;51.194;7.268;2023-12-20T04:16:28;16.38;;;7.13;;
49217;SDS011;35045;51.194;7.268;2023-12-20T04:18:54;14.40;;;7.45;;
49217;SDS011;35045;51.194;7.268;2023-12-20T04:21:20;18.15;;;7.90;;
49217;SDS011;35045;51.194;7.268;2023-12-20T04:23:46;17.30;;;7.28;;
49217;SDS011;35045;51.194;7.268;2023-12-20T04:26:12;15.98;;;6.93;;
49217;SDS011;35045;51.194;7.268;2023-12-20T04:28:39;14.75;;;7.95;;
49217;SDS011;35045;51.194;7.268;2023-12-20T04:31:05;20.23;;;7.97;;
49217;SDS011;35045;51.194;7.268;2023-12-20T04:33:31;17.65;;;7.63;;
49217;SDS011;35045;51.194;7.268;2023-12-20T04:35:57;18.83;;;8.05;;
49217;SDS011;35045;51.194;7.268;2023-12-20T04:38:24;17.83;;;7.97;;
49217;SDS011;35045;51.194;7.268;2023-12-20T04:40:50;18.67;;;8.02;;
49217;SDS011;35045;51.194;7.268;2023-12-20T04:43:16;17.42;;;8.05;;
49217;SDS011;35045;51.194;7.268;2023-12-20T04:45:43;16.52;;;7.13;;
49217;SDS011;35045;51.194;7.268;2023-12-20T04:48:09;17.17;;;7.80;;
49217;SDS011;35045;51.194;7.268;2023-12-20T04:50:35;21.38;;;8.90;;
49217;SDS011;35045;51.194;7.268;2023-12-20T04:53:01;19.05;;;8.32;;
49217;SDS011;35045;51.194;7.268;2023-12-20T04:55:28;20.35;;;8.68;;
49217;SDS011;35045;51.194;7.268;2023-12-20T04:57:54;25.33;;;8.18;;
49217;SDS011;35045;51.194;7.268;2023-12-20T05:00:20;16.20;;;8.30;;
49217;SDS011;35045;51.194;7.268;2023-12-20T05:02:46;18.92;;;7.90;;
49217;SDS011;35045;51.194;7.268;2023-12-20T05:05:13;15.52;;;8.32;;
49217;SDS011;35045;51.194;7.268;2023-12-20T05:07:40;19.25;;;7.60;;
49217;SDS011;35045;51.194;7.268;2023-12-20T05:10:07;17.50;;;6.97;;
49217;SDS011;35045;51.194;7.268;2023-12-20T05:12:34;23.42;;;8.18;;
49217;SDS011;35045;51.194;7.268;2023-12-20T05:15:00;19.67;;;8.75;;
49217;SDS011;35045;51.194;7.268;2023-12-20T05:17:26;25.17;;;9.32;;
49217;SDS011;35045;51.194;7.268;2023-12-20T05:19:53;17.23;;;8.25;;
49217;SDS011;35045;51.194;7.268;2023-12-20T05:22:19;20.15;;;8.07;;
49217;SDS011;35045;51.194;7.268;2023-12-20T05:24:46;15.43;;;6.78;;
49217;SDS011;35045;51.194;7.268;2023-12-20T05:27:12;16.80;;;6.57;;
49217;SDS011;35045;51.194;7.268;2023-12-20T05:29:38;20.77;;;6.90;;
49217;SDS011;35045;51.194;7.268;2023-12-20T05:32:04;18.13;;;7.60;;
49217;SDS011;35045;51.194;7.268;2023-12-20T05:34:31;17.17;;;6.72;;
49217;SDS011;35045;51.194;7.268;2023-12-20T05:36:57;17.15;;;7.25;;
49217;SDS011;35045;51.194;7.268;2023-12-20T05:39:24;18.50;;;6.97;;
49217;SDS011;35045;51.194;7.268;2023-12-20T05:41:50;16.23;;;6.97;;
49217;SDS011;35045;51.194;7.268;2023-12-20T05:44:16;16.58;;;6.57;;
49217;SDS011;35045;51.194;7.268;2023-12-20T05:46:43;17.63;;;6.82;;
49217;SDS011;35045;51.194;7.268;2023-12-20T05:49:09;17.90;;;7.43;;
49217;SDS011;35045;51.194;7.268;2023-12-20T05:51:36;16.98;;;6.90;;
49217;SDS011;35045;51.194;7.268;2023-12-20T05:54:02;18.08;;;7.78;;
49217;SDS011;35045;51.194;7.268;2023-12-20T05:56:30;20.75;;;8.25;;
49217;SDS011;35045;51.194;7.268;2023-12-20T05:58:56;17.98;;;7.40;;
49217;SDS011;35045;51.194;7.268;2023-12-20T06:01:22;18.50;;;7.32;;
49217;SDS011;35045;51.194;7.268;2023-12-20T06:03:49;19.95;;;7.88;;
49217;SDS011;35045;51.194;7.268;2023-12-20T06:06:16;22.05;;;7.28;;
49217;SDS011;35045;51.194;7.268;2023-12-20T06:08:43;20.35;;;8.20;;
49217;SDS011;35045;51.194;7.268;2023-12-20T06:11:09;23.05;;;7.25;;
49217;SDS011;35045;51.194;7.268;2023-12-20T06:13:36;15.40;;;6.28;;
49217;SDS011;35045;51.194;7.268;2023-12-20T06:16:03;15.07;;;6.75;;
49217;SDS011;35045;51.194;7.268;2023-12-20T06:18:31;16.92;;;5.75;;
49217;SDS011;35045;51.194;7.268;2023-12-20T06:20:57;18.15;;;5.80;;
49217;SDS011;35045;51.194;7.268;2023-12-20T06:23:23;20.80;;;5.80;;
49217;SDS011;35045;51.194;7.268;2023-12-20T06:25:49;20.48;;;6.88;;
49217;SDS011;35045;51.194;7.268;2023-12-20T06:28:15;20.58;;;7.55;;
49217;SDS011;35045;51.194;7.268;2023-12-20T06:30:42;18.98;;;7.97;;
49217;SDS011;35045;51.194;7.268;2023-12-20T06:33:08;16.45;;;7.65;;
49217;SDS011;35045;51.194;7.268;2023-12-20T06:35:35;19.95;;;8.10;;
49217;SDS011;35045;51.194;7.268;2023-12-20T06:38:02;15.80;;;7.78;;
49217;SDS011;35045;51.194;7.268;2023-12-20T06:40:28;18.05;;;8.02;;
49217;SDS011;35045;51.194;7.268;2023-12-20T06:42:55;22.45;;;9.27;;
49217;SDS011;35045;51.194;7.268;2023-12-20T06:45:23;15.90;;;8.55;;
49217;SDS011;35045;51.194;7.268;2023-12-20T06:47:49;19.42;;;8.40;;
49217;SDS011;35045;51.194;7.268;2023-12-20T06:50:15;15.90;;;8.43;;
49217;SDS011;35045;51.194;7.268;2023-12-20T06:52:42;20.67;;;8.32;;
49217;SDS011;35045;51.194;7.268;2023-12-20T06:55:08;18.65;;;8.13;;
49217;SDS011;35045;51.194;7.268;2023-12-20T06:57:34;26.08;;;8.23;;
49217;SDS011;35045;51.194;7.268;2023-12-20T07:00:02;21.83;;;9.15;;
49217;SDS011;35045;51.194;7.268;2023-12-20T07:02:29;19.17;;;7.97;;
49217;SDS011;35045;51.194;7.268;2023-12-20T07:04:56;15.63;;;7.32;;
49217;SDS011;35045;51.194;7.268;2023-12-20T07:07:23;18.98;;;8.13;;
49217;SDS011;35045;51.194;7.268;2023-12-20T07:09:50;21.52;;;8.18;;
49217;SDS011;35045;51.194;7.268;2023-12-20T07:12:16;19.38;;;7.78;;
49217;SDS011;35045;51.194;7.268;2023-12-20T07:14:44;23.20;;;9.73;;
49217;SDS011;35045;51.194;7.268;2023-12-20T07:17:10;14.65;;;6.93;;
49217;SDS011;35045;51.194;7.268;2023-12-20T07:19:39;16.42;;;6.78;;
49217;SDS011;35045;51.194;7.268;2023-12-20T07:22:06;20.48;;;7.60;;
49217;SDS011;35045;51.194;7.268;2023-12-20T07:24:32;19.95;;;7.00;;
49217;SDS011;35045;51.194;7.268;2023-12-20T07:27:01;14.35;;;7.03;;
49217;SDS011;35045;51.194;7.268;2023-12-20T07:29:28;14.45;;;6.63;;
49217;SDS011;35045;51.194;7.268;2023-12-20T07:31:54;21.63;;;7.10;;
49217;SDS011;35045;51.194;7.268;2023-12-20T07:34:20;13.50;;;6.32;;
49217;SDS011;35045;51.194;7.268;2023-12-20T07:36:47;17.35;;;6.85;;
49217;SDS011;35045;51.194;7.268;2023-12-20T07:39:13;14.40;;;6.75;;
49217;SDS011;35045;51.194;7.268;2023-12-20T07:41:40;18.60;;;6.85;;
49217;SDS011;35045;51.194;7.268;2023-12-20T07:44:07;19.00;;;6.70;;
49217;SDS011;35045;51.194;7.268;2023-12-20T07:46:33;22.98;;;7.65;;
49217;SDS011;35045;51.194;7.268;2023-12-20T07:48:59;19.67;;;7.85;;
49217;SDS011;35045;51.194;7.268;2023-12-20T07:51:25;18.85;;;6.45;;
49217;SDS011;35045;51.194;7.268;2023-12-20T07:53:52;17.80;;;6.63;;
49217;SDS011;35045;51.194;7.268;2023-12-20T07:56:18;14.30;;;6.53;;
49217;SDS011;35045;51.194;7.268;2023-12-20T07:58:45;15.60;;;6.32;;
49217;SDS011;35045;51.194;7.268;2023-12-20T08:01:15;18.70;;;6.75;;
49217;SDS011;35045;51.194;7.268;2023-12-20T08:03:42;19.77;;;6.90;;
49217;SDS011;35045;51.194;7.268;2023-12-20T08:06:08;19.80;;;7.78;;
49217;SDS011;35045;51.194;7.268;2023-12-20T08:08:34;18.58;;;7.70;;
49217;SDS011;35045;51.194;7.268;2023-12-20T08:11:00;16.23;;;5.93;;
49217;SDS011;35045;51.194;7.268;2023-12-20T08:13:28;24.05;;;6.60;;
49217;SDS011;35045;51.194;7.268;2023-12-20T08:15:54;18.02;;;7.40;;
49217;SDS011;35045;51.194;7.268;2023-12-20T08:18:21;16.65;;;6.38;;
49217;SDS011;35045;51.194;7.268;2023-12-20T08:20:49;20.02;;;6.93;;
49217;SDS011;35045;51.194;7.268;2023-12-20T08:23:15;16.98;;;6.50;;
49217;SDS011;35045;51.194;7.268;2023-12-20T08:25:41;20.38;;;6.55;;
49217;SDS011;35045;51.194;7.268;2023-12-20T08:28:08;18.73;;;6.75;;
49217;SDS011;35045;51.194;7.268;2023-12-20T08:30:34;22.52;;;7.47;;
49217;SDS011;35045;51.194;7.268;2023-12-20T08:33:00;15.32;;;6.57;;
49217;SDS011;35045;51.194;7.268;2023-12-20T08:35:26;20.55;;;6.80;;
49217;SDS011;35045;51.194;7.268;2023-12-20T08:37:53;17.40;;;6.38;;
49217;SDS011;35045;51.194;7.268;2023-12-20T08:40:19;18.33;;;7.35;;
49217;SDS011;35045;51.194;7.268;2023-12-20T08:42:46;18.02;;;8.20;;
49217;SDS011;35045;51.194;7.268;2023-12-20T08:45:12;16.48;;;6.95;;
49217;SDS011;35045;51.194;7.268;2023-12-20T08:47:38;20.50;;;7.00;;
49217;SDS011;35045;51.194;7.268;2023-12-20T08:50:06;20.23;;;7.13;;
49217;SDS011;35045;51.194;7.268;2023-12-20T08:52:33;17.35;;;6.80;;
49217;SDS011;35045;51.194;7.268;2023-12-20T08:54:59;17.13;;;7.43;;
49217;SDS011;35045;51.194;7.268;2023-12-20T08:57:26;18.35;;;6.95;;
49217;SDS011;35045;51.194;7.268;2023-12-20T08:59:52;18.20;;;7.13;;
49217;SDS011;35045;51.194;7.268;2023-12-20T09:02:18;19.40;;;7.60;;
49217;SDS011;35045;51.194;7.268;2023-12-20T09:04:44;19.15;;;7.10;;
49217;SDS011;35045;51.194;7.268;2023-12-20T09:07:23;16.35;;;7.03;;
49217;SDS011;35045;51.194;7.268;2023-12-20T09:09:50;18.27;;;6.72;;
49217;SDS011;35045;51.194;7.268;2023-12-20T09:12:17;20.38;;;6.90;;
49217;SDS011;35045;51.194;7.268;2023-12-20T09:14:48;19.92;;;7.40;;
49217;SDS011;35045;51.194;7.268;2023-12-20T09:17:16;16.35;;;6.32;;
49217;SDS011;35045;51.194;7.268;2023-12-20T09:19:43;21.42;;;7.18;;
49217;SDS011;35045;51.194;7.268;2023-12-20T09:22:10;17.95;;;6.05;;
49217;SDS011;35045;51.194;7.268;2023-12-20T09:24:36;17.92;;;6.60;;
49217;SDS011;35045;51.194;7.268;2023-12-20T09:27:04;17.58;;;6.05;;
49217;SDS011;35045;51.194;7.268;2023-12-20T09:29:31;16.42;;;6.40;;
49217;SDS011;35045;51.194;7.268;2023-12-20T09:31:58;15.80;;;6.55;;
49217;SDS011;35045;51.194;7.268;2023-12-20T09:34:24;22.02;;;6.60;;
49217;SDS011;35045;51.194;7.268;2023-12-20T09:36:51;20.10;;;6.40;;
49217;SDS011;35045;51.194;7.268;2023-12-20T09:39:18;23.25;;;6.38;;
49217;SDS011;35045;51.194;7.268;2023-12-20T09:41:49;15.23;;;6.10;;
49217;SDS011;35045;51.194;7.268;2023-12-20T09:44:25;21.05;;;6.47;;
49217;SDS011;35045;51.194;7.268;2023-12-20T09:46:51;11.48;;;5.88;;
49217;SDS011;35045;51.194;7.268;2023-12-20T09:49:20;15.35;;;5.80;;
49217;SDS011;35045;51.194;7.268;2023-12-20T09:51:47;15.27;;;5.47;;
49217;SDS011;35045;51.194;7.268;2023-12-20T09:54:14;17.73;;;5.68;;
49217;SDS011;35045;51.194;7.268;2023-12-20T09:56:41;18.70;;;5.70;;
49217;SDS011;35045;51.194;7.268;2023-12-20T09:59:07;15.25;;;5.90;;
49217;SDS011;35045;51.194;7.268;2023-12-20T10:01:34;15.05;;;5.78;;
49217;SDS011;35045;51.194;7.268;2023-12-20T10:04:03;15.05;;;5.03;;
49217;SDS011;35045;51.194;7.268;2023-12-20T10:06:36;16.13;;;5.38;;
49217;SDS011;35045;51.194;7.268;2023-12-20T10:09:02;15.00;;;5.13;;
49217;SDS011;35045;51.194;7.268;2023-12-20T10:11:29;12.57;;;5.32;;
49217;SDS011;35045;51.194;7.268;2023-12-20T10:13:59;15.88;;;5.10;;
49217;SDS011;35045;51.194;7.268;2023-12-20T10:16:27;17.92;;;6.45;;
49217;SDS011;35045;51.194;7.268;2023-12-20T10:18:53;18.08;;;5.05;;
49217;SDS011;35045;51.194;7.268;2023-12-20T10:21:20;14.00;;;5.07;;
49217;SDS011;35045;51.194;7.268;2023-12-20T10:23:48;20.17;;;5.63;;
49217;SDS011;35045;51.194;7.268;2023-12-20T10:26:21;14.57;;;4.80;;
49217;SDS011;35045;51.194;7.268;2023-12-20T10:28:51;16.40;;;5.78;;
49217;SDS011;35045;51.194;7.268;2023-12-20T10:31:28;12.82;;;5.15;;
49217;SDS011;35045;51.194;7.268;2023-12-20T10:34:01;16.30;;;5.47;;
49217;SDS011;35045;51.194;7.268;2023-12-20T10:36:29;16.45;;;4.65;;
49217;SDS011;35045;51.194;7.268;2023-12-20T10:38:57;15.02;;;5.70;;
49217;SDS011;35045;51.194;7.268;2023-12-20T10:41:29;19.50;;;5.10;;
49217;SDS011;35045;51.194;7.268;2023-12-20T10:43:59;18.35;;;5.05;;
49217;SDS011;35045;51.194;7.268;2023-12-20T10:46:27;13.85;;;5.00;;
49217;SDS011;35045;51.194;7.268;2023-12-20T10:48:57;16.13;;;5.57;;
49217;SDS011;35045;51.194;7.268;2023-12-20T10:51:24;17.45;;;5.03;;
49217;SDS011;35045;51.194;7.268;2023-12-20T10:53:52;17.15;;;4.65;;
49217;SDS011;35045;51.194;7.268;2023-12-20T10:56:20;13.25;;;4.35;;
49217;SDS011;35045;51.194;7.268;2023-12-20T10:58:47;11.63;;;4.47;;
49217;SDS011;35045;51.194;7.268;2023-12-20T11:01:15;16.90;;;5.82;;
49217;SDS011;35045;51.194;7.268;2023-12-20T11:03:53;11.27;;;4.88;;
49217;SDS011;35045;51.194;7.268;2023-12-20T11:12:46;13.57;;;5.25;;
49217;SDS011;35045;51.194;7.268;2023-12-20T11:14:53;16.80;;;5.97;;
49217;SDS011;35045;51.194;7.268;2023-12-20T11:17:23;18.70;;;6.03;;
49217;SDS011;35045;51.194;7.268;2023-12-20T11:22:20;15.93;;;5.53;;
49217;SDS011;35045;51.194;7.268;2023-12-20T11:24:47;14.18;;;5.13;;
49217;SDS011;35045;51.194;7.268;2023-12-20T11:27:14;14.45;;;5.32;;
49217;SDS011;35045;51.194;7.268;2023-12-20T11:29:41;16.48;;;5.00;;
49217;SDS011;35045;51.194;7.268;2023-12-20T11:34:58;11.70;;;4.75;;
49217;SDS011;35045;51.194;7.268;2023-12-20T11:37:29;13.30;;;4.95;;
49217;SDS011;35045;51.194;7.268;2023-12-20T11:40:02;17.98;;;5.20;;
49217;SDS011;35045;51.194;7.268;2023-12-20T11:42:48;22.73;;;5.68;;
49217;SDS011;35045;51.194;7.268;2023-12-20T11:45:19;15.73;;;5.88;;
49217;SDS011;35045;51.194;7.268;2023-12-20T11:47:48;14.50;;;5.50;;
49217;SDS011;35045;51.194;7.268;2023-12-20T11:50:21;10.77;;;4.70;;
49217;SDS011;35045;51.194;7.268;2023-12-20T11:52:49;19.88;;;5.53;;
49217;SDS011;35045;51.194;7.268;2023-12-20T11:55:17;12.88;;;5.80;;
49217;SDS011;35045;51.194;7.268;2023-12-20T11:57:43;14.43;;;4.95;;
49217;SDS011;35045;51.194;7.268;2023-12-20T12:00:10;15.75;;;5.15;;
49217;SDS011;35045;51.194;7.268;2023-12-20T12:02:37;17.08;;;5.53;;
49217;SDS011;35045;51.194;7.268;2023-12-20T12:05:03;13.15;;;4.70;;
49217;SDS011;35045;51.194;7.268;2023-12-20T12:07:33;15.48;;;5.47;;
49217;SDS011;35045;51.194;7.268;2023-12-20T12:10:00;16.90;;;4.97;;
49217;SDS011;35045;51.194;7.268;2023-12-20T12:12:29;19.85;;;5.65;;
49217;SDS011;35045;51.194;7.268;2023-12-20T12:14:55;13.63;;;4.90;;
49217;SDS011;35045;51.194;7.268;2023-12-20T12:17:23;14.43;;;5.65;;
49217;SDS011;35045;51.194;7.268;2023-12-20T12:19:49;11.55;;;4.88;;
49217;SDS011;35045;51.194;7.268;2023-12-20T12:22:15;16.30;;;6.32;;
49217;SDS011;35045;51.194;7.268;2023-12-20T12:24:46;14.27;;;5.65;;
49217;SDS011;35045;51.194;7.268;2023-12-20T12:27:13;15.27;;;5.50;;
49217;SDS011;35045;51.194;7.268;2023-12-20T12:29:39;15.10;;;4.95;;
49217;SDS011;35045;51.194;7.268;2023-12-20T12:32:07;14.30;;;5.50;;
49217;SDS011;35045;51.194;7.268;2023-12-20T12:34:34;16.50;;;6.10;;
49217;SDS011;35045;51.194;7.268;2023-12-20T12:37:03;22.00;;;6.00;;
49217;SDS011;35045;51.194;7.268;2023-12-20T12:39:30;13.80;;;5.90;;
49217;SDS011;35045;51.194;7.268;2023-12-20T12:41:56;15.23;;;5.95;;
49217;SDS011;35045;51.194;7.268;2023-12-20T12:44:23;15.65;;;6.30;;
49217;SDS011;35045;51.194;7.268;2023-12-20T12:46:50;15.68;;;6.05;;
49217;SDS011;35045;51.194;7.268;2023-12-20T12:49:21;16.33;;;7.10;;
49217;SDS011;35045;51.194;7.268;2023-12-20T12:51:48;14.23;;;5.90;;
49217;SDS011;35045;51.194;7.268;2023-12-20T12:54:15;16.02;;;6.38;;
49217;SDS011;35045;51.194;7.268;2023-12-20T12:56:42;14.90;;;6.20;;
49217;SDS011;35045;51.194;7.268;2023-12-20T12:59:10;13.70;;;6.35;;
49217;SDS011;35045;51.194;7.268;2023-12-20T13:01:37;13.00;;;5.88;;
49217;SDS011;35045;51.194;7.268;2023-12-20T13:04:04;15.52;;;6.05;;
49217;SDS011;35045;51.194;7.268;2023-12-20T13:06:36;17.90;;;6.50;;
49217;SDS011;35045;51.194;7.268;2023-12-20T13:09:04;19.55;;;6.78;;
49217;SDS011;35045;51.194;7.268;2023-12-20T13:11:30;20.90;;;6.70;;
49217;SDS011;35045;51.194;7.268;2023-12-20T13:13:57;13.63;;;5.90;;
49217;SDS011;35045;51.194;7.268;2023-12-20T13:16:24;15.77;;;6.10;;
49217;SDS011;35045;51.194;7.268;2023-12-20T13:18:50;17.38;;;6.65;;
49217;SDS011;35045;51.194;7.268;2023-12-20T13:21:17;15.77;;;5.55;;
49217;SDS011;35045;51.194;7.268;2023-12-20T13:23:43;14.30;;;6.63;;
49217;SDS011;35045;51.194;7.268;2023-12-20T13:26:10;12.93;;;5.22;;
49217;SDS011;35045;51.194;7.268;2023-12-20T13:28:36;15.52;;;6.72;;
49217;SDS011;35045;51.194;7.268;2023-12-20T13:31:03;11.50;;;5.53;;
49217;SDS011;35045;51.194;7.268;2023-12-20T13:33:29;12.20;;;5.40;;
49217;SDS011;35045;51.194;7.268;2023-12-20T13:35:56;12.60;;;5.55;;
49217;SDS011;35045;51.194;7.268;2023-12-20T13:38:23;15.68;;;6.35;;
49217;SDS011;35045;51.194;7.268;2023-12-20T13:40:50;13.68;;;6.03;;
49217;SDS011;35045;51.194;7.268;2023-12-20T13:43:16;13.73;;;6.15;;
49217;SDS011;35045;51.194;7.268;2023-12-20T13:45:46;11.43;;;6.32;;
49217;SDS011;35045;51.194;7.268;2023-12-20T13:48:13;17.88;;;6.38;;
49217;SDS011;35045;51.194;7.268;2023-12-20T13:50:39;11.35;;;5.68;;
49217;SDS011;35045;51.194;7.268;2023-12-20T13:53:06;13.20;;;5.90;;
49217;SDS011;35045;51.194;7.268;2023-12-20T13:55:32;18.13;;;6.85;;
49217;SDS011;35045;51.194;7.268;2023-12-20T13:57:58;15.13;;;8.13;;
49217;SDS011;35045;51.194;7.268;2023-12-20T14:00:25;13.40;;;6.78;;
49217;SDS011;35045;51.194;7.268;2023-12-20T14:02:51;13.35;;;7.40;;
49217;SDS011;35045;51.194;7.268;2023-12-20T14:05:17;19.38;;;7.35;;
49217;SDS011;35045;51.194;7.268;2023-12-20T14:07:44;15.40;;;6.50;;
49217;SDS011;35045;51.194;7.268;2023-12-20T14:10:11;16.73;;;6.75;;
49217;SDS011;35045;51.194;7.268;2023-12-20T14:12:39;13.20;;;6.22;;
49217;SDS011;35045;51.194;7.268;2023-12-20T14:15:06;13.65;;;5.53;;
49217;SDS011;35045;51.194;7.268;2023-12-20T14:17:39;10.55;;;4.75;;
49217;SDS011;35045;51.194;7.268;2023-12-20T14:20:08;10.70;;;4.45;;
49217;SDS011;35045;51.194;7.268;2023-12-20T14:22:35;13.30;;;4.90;;
49217;SDS011;35045;51.194;7.268;2023-12-20T14:25:01;12.35;;;5.40;;
49217;SDS011;35045;51.194;7.268;2023-12-20T14:27:28;11.65;;;5.72;;
49217;SDS011;35045;51.194;7.268;2023-12-20T14:29:54;13.05;;;6.20;;
49217;SDS011;35045;51.194;7.268;2023-12-20T14:32:20;13.50;;;6.30;;
49217;SDS011;35045;51.194;7.268;2023-12-20T14:34:47;10.85;;;5.75;;
49217;SDS011;35045;51.194;7.268;2023-12-20T14:37:13;10.57;;;5.80;;
49217;SDS011;35045;51.194;7.268;2023-12-20T14:39:40;12.18;;;6.18;;
49217;SDS011;35045;51.194;7.268;2023-12-20T14:42:07;12.68;;;6.43;;
49217;SDS011;35045;51.194;7.268;2023-12-20T14:44:42;15.30;;;7.72;;